sensor_id;sensor_type;location;lat;lon;timestamp;temperature;humidity
48806;DHT22;34625;47.176;27.548;2023-04-03T00:01:10;23.00;55.30
48806;DHT22;34625;47.176;27.548;2023-04-03T00:03:36;23.00;57.90
48806;DHT22;34625;47.176;27.548;2023-04-03T00:06:02;22.80;55.80
48806;DHT22;34625;47.176;27.548;2023-04-03T00:08:28;22.90;58.30
48806;DHT22;34625;47.176;27.548;2023-04-03T00:10:56;23.00;55.10
48806;DHT22;34625;47.176;27.548;2023-04-03T00:13:22;22.90;56.60
48806;DHT22;34625;47.176;27.548;2023-04-03T00:15:48;22.80;56.70
48806;DHT22;34625;47.176;27.548;2023-04-03T00:18:14;22.80;56.90
48806;DHT22;34625;47.176;27.548;2023-04-03T00:20:40;22.70;57.70
48806;DHT22;34625;47.176;27.548;2023-04-03T00:23:06;22.70;57.80
48806;DHT22;34625;47.176;27.548;2023-04-03T00:25:32;22.80;56.50
48806;DHT22;34625;47.176;27.548;2023-04-03T00:27:58;22.70;57.50
48806;DHT22;34625;47.176;27.548;2023-04-03T00:30:25;22.60;58.20
48806;DHT22;34625;47.176;27.548;2023-04-03T00:32:51;22.70;57.50
48806;DHT22;34625;47.176;27.548;2023-04-03T00:35:18;22.60;57.60
48806;DHT22;34625;47.176;27.548;2023-04-03T00:37:44;22.60;58.00
48806;DHT22;34625;47.176;27.548;2023-04-03T00:40:11;22.60;57.60
48806;DHT22;34625;47.176;27.548;2023-04-03T00:42:39;22.70;58.60
48806;DHT22;34625;47.176;27.548;2023-04-03T00:47:31;22.80;57.60
48806;DHT22;34625;47.176;27.548;2023-04-03T00:49:58;22.70;56.60
48806;DHT22;34625;47.176;27.548;2023-04-03T00:52:27;22.70;56.70
48806;DHT22;34625;47.176;27.548;2023-04-03T00:54:54;22.60;58.00
48806;DHT22;34625;47.176;27.548;2023-04-03T00:57:22;22.70;57.80
48806;DHT22;34625;47.176;27.548;2023-04-03T00:59:49;22.90;58.60
48806;DHT22;34625;47.176;27.548;2023-04-03T01:02:16;22.60;57.60
48806;DHT22;34625;47.176;27.548;2023-04-03T01:04:42;22.60;57.90
48806;DHT22;34625;47.176;27.548;2023-04-03T01:07:10;22.60;56.40
48806;DHT22;34625;47.176;27.548;2023-04-03T01:09:37;22.60;56.40
48806;DHT22;34625;47.176;27.548;2023-04-03T01:14:56;22.50;58.50
48806;DHT22;34625;47.176;27.548;2023-04-03T01:17:36;22.60;57.20
48806;DHT22;34625;47.176;27.548;2023-04-03T01:25:20;22.50;58.60
48806;DHT22;34625;47.176;27.548;2023-04-03T01:27:46;22.40;58.40
48806;DHT22;34625;47.176;27.548;2023-04-03T01:30:12;22.50;56.40
48806;DHT22;34625;47.176;27.548;2023-04-03T01:32:39;22.60;58.20
48806;DHT22;34625;47.176;27.548;2023-04-03T01:35:07;22.50;57.90
48806;DHT22;34625;47.176;27.548;2023-04-03T01:37:33;22.50;58.60
48806;DHT22;34625;47.176;27.548;2023-04-03T01:39:58;22.50;57.80
48806;DHT22;34625;47.176;27.548;2023-04-03T01:42:24;22.50;57.90
48806;DHT22;34625;47.176;27.548;2023-04-03T01:44:50;22.50;57.90
48806;DHT22;34625;47.176;27.548;2023-04-03T01:47:16;22.40;58.40
48806;DHT22;34625;47.176;27.548;2023-04-03T01:49:42;22.50;58.20
48806;DHT22;34625;47.176;27.548;2023-04-03T01:52:08;22.40;56.50
48806;DHT22;34625;47.176;27.548;2023-04-03T01:54:34;22.60;56.70
48806;DHT22;34625;47.176;27.548;2023-04-03T01:57:00;22.50;57.80
48806;DHT22;34625;47.176;27.548;2023-04-03T01:59:26;22.60;58.30
48806;DHT22;34625;47.176;27.548;2023-04-03T02:01:52;22.50;58.20
48806;DHT22;34625;47.176;27.548;2023-04-03T02:04:18;22.50;56.90
48806;DHT22;34625;47.176;27.548;2023-04-03T02:06:44;22.50;57.40
48806;DHT22;34625;47.176;27.548;2023-04-03T02:09:10;22.50;57.20
48806;DHT22;34625;47.176;27.548;2023-04-03T02:11:36;22.60;58.30
48806;DHT22;34625;47.176;27.548;2023-04-03T02:14:02;22.40;56.40
48806;DHT22;34625;47.176;27.548;2023-04-03T02:16:28;22.40;57.80
48806;DHT22;34625;47.176;27.548;2023-04-03T02:18:54;22.40;58.60
48806;DHT22;34625;47.176;27.548;2023-04-03T02:21:20;22.40;58.60
48806;DHT22;34625;47.176;27.548;2023-04-03T02:23:47;22.40;57.60
48806;DHT22;34625;47.176;27.548;2023-04-03T02:26:14;22.40;57.80
48806;DHT22;34625;47.176;27.548;2023-04-03T02:28:40;22.40;58.60
48806;DHT22;34625;47.176;27.548;2023-04-03T02:31:07;22.40;58.20
48806;DHT22;34625;47.176;27.548;2023-04-03T02:33:34;22.30;57.50
48806;DHT22;34625;47.176;27.548;2023-04-03T02:36:06;22.30;57.40
48806;DHT22;34625;47.176;27.548;2023-04-03T02:38:33;22.40;57.40
48806;DHT22;34625;47.176;27.548;2023-04-03T02:41:00;22.30;57.30
48806;DHT22;34625;47.176;27.548;2023-04-03T02:43:27;22.20;58.10
48806;DHT22;34625;47.176;27.548;2023-04-03T02:45:53;22.30;58.20
48806;DHT22;34625;47.176;27.548;2023-04-03T02:48:19;22.50;58.40
48806;DHT22;34625;47.176;27.548;2023-04-03T02:50:45;22.40;57.30
48806;DHT22;34625;47.176;27.548;2023-04-03T02:53:11;22.30;55.80
48806;DHT22;34625;47.176;27.548;2023-04-03T02:55:37;22.30;57.20
48806;DHT22;34625;47.176;27.548;2023-04-03T02:58:03;22.40;57.40
48806;DHT22;34625;47.176;27.548;2023-04-03T03:00:29;22.50;57.80
48806;DHT22;34625;47.176;27.548;2023-04-03T03:02:55;22.30;56.60
48806;DHT22;34625;47.176;27.548;2023-04-03T03:05:21;22.30;57.30
48806;DHT22;34625;47.176;27.548;2023-04-03T03:07:47;22.30;57.60
48806;DHT22;34625;47.176;27.548;2023-04-03T03:10:13;22.30;57.80
48806;DHT22;34625;47.176;27.548;2023-04-03T03:12:39;22.30;58.00
48806;DHT22;34625;47.176;27.548;2023-04-03T03:15:07;22.30;57.90
48806;DHT22;34625;47.176;27.548;2023-04-03T03:17:33;22.30;57.80
48806;DHT22;34625;47.176;27.548;2023-04-03T03:19:59;22.20;58.10
48806;DHT22;34625;47.176;27.548;2023-04-03T03:22:26;22.30;57.50
48806;DHT22;34625;47.176;27.548;2023-04-03T03:24:52;22.20;58.30
48806;DHT22;34625;47.176;27.548;2023-04-03T03:27:17;22.10;57.30
48806;DHT22;34625;47.176;27.548;2023-04-03T03:29:44;22.20;56.90
48806;DHT22;34625;47.176;27.548;2023-04-03T03:32:10;22.10;58.50
48806;DHT22;34625;47.176;27.548;2023-04-03T03:34:36;22.30;58.00
48806;DHT22;34625;47.176;27.548;2023-04-03T03:37:02;22.30;57.60
48806;DHT22;34625;47.176;27.548;2023-04-03T03:39:28;22.30;57.70
48806;DHT22;34625;47.176;27.548;2023-04-03T03:41:54;22.20;57.60
48806;DHT22;34625;47.176;27.548;2023-04-03T03:44:21;22.30;58.40
48806;DHT22;34625;47.176;27.548;2023-04-03T03:46:47;22.30;57.60
48806;DHT22;34625;47.176;27.548;2023-04-03T03:49:13;22.30;58.10
48806;DHT22;34625;47.176;27.548;2023-04-03T03:51:39;22.40;56.10
48806;DHT22;34625;47.176;27.548;2023-04-03T03:54:06;22.40;58.10
48806;DHT22;34625;47.176;27.548;2023-04-03T03:56:33;22.50;57.40
48806;DHT22;34625;47.176;27.548;2023-04-03T03:58:59;22.60;57.70
48806;DHT22;34625;47.176;27.548;2023-04-03T04:01:25;22.40;56.00
48806;DHT22;34625;47.176;27.548;2023-04-03T04:03:51;22.40;57.80
48806;DHT22;34625;47.176;27.548;2023-04-03T04:06:23;22.40;57.30
48806;DHT22;34625;47.176;27.548;2023-04-03T04:08:50;22.40;58.20
48806;DHT22;34625;47.176;27.548;2023-04-03T04:11:16;22.40;57.40
48806;DHT22;34625;47.176;27.548;2023-04-03T04:13:44;22.40;56.80
48806;DHT22;34625;47.176;27.548;2023-04-03T04:16:12;22.20;57.70
48806;DHT22;34625;47.176;27.548;2023-04-03T04:18:38;22.30;57.90
48806;DHT22;34625;47.176;27.548;2023-04-03T04:21:04;22.30;57.40
48806;DHT22;34625;47.176;27.548;2023-04-03T04:23:30;22.20;56.70
48806;DHT22;34625;47.176;27.548;2023-04-03T04:25:58;22.00;56.50
48806;DHT22;34625;47.176;27.548;2023-04-03T04:28:25;22.00;56.30
48806;DHT22;34625;47.176;27.548;2023-04-03T04:30:53;22.00;56.50
48806;DHT22;34625;47.176;27.548;2023-04-03T04:33:21;22.00;57.50
48806;DHT22;34625;47.176;27.548;2023-04-03T04:35:47;22.00;58.10
48806;DHT22;34625;47.176;27.548;2023-04-03T04:38:14;22.00;58.40
48806;DHT22;34625;47.176;27.548;2023-04-03T04:40:40;22.00;55.90
48806;DHT22;34625;47.176;27.548;2023-04-03T04:43:07;22.00;58.30
48806;DHT22;34625;47.176;27.548;2023-04-03T04:45:34;22.00;56.20
48806;DHT22;34625;47.176;27.548;2023-04-03T04:48:00;22.10;58.30
48806;DHT22;34625;47.176;27.548;2023-04-03T04:50:26;22.10;56.40
48806;DHT22;34625;47.176;27.548;2023-04-03T04:52:53;22.00;56.70
48806;DHT22;34625;47.176;27.548;2023-04-03T04:55:19;22.10;57.60
48806;DHT22;34625;47.176;27.548;2023-04-03T04:57:45;22.00;50.70
48806;DHT22;34625;47.176;27.548;2023-04-03T05:00:11;22.30;49.60
48806;DHT22;34625;47.176;27.548;2023-04-03T05:02:37;22.10;49.30
48806;DHT22;34625;47.176;27.548;2023-04-03T05:05:03;22.30;49.20
48806;DHT22;34625;47.176;27.548;2023-04-03T05:07:29;22.30;49.50
48806;DHT22;34625;47.176;27.548;2023-04-03T05:09:57;22.40;47.60
48806;DHT22;34625;47.176;27.548;2023-04-03T05:12:23;22.50;49.30
48806;DHT22;34625;47.176;27.548;2023-04-03T05:14:54;22.60;50.30
48806;DHT22;34625;47.176;27.548;2023-04-03T05:17:20;22.70;50.40
48806;DHT22;34625;47.176;27.548;2023-04-03T05:19:50;22.70;48.40
48806;DHT22;34625;47.176;27.548;2023-04-03T05:22:19;22.60;47.10
48806;DHT22;34625;47.176;27.548;2023-04-03T05:24:45;22.80;48.90
48806;DHT22;34625;47.176;27.548;2023-04-03T05:27:11;22.70;47.60
48806;DHT22;34625;47.176;27.548;2023-04-03T05:29:41;22.80;48.00
48806;DHT22;34625;47.176;27.548;2023-04-03T05:32:11;22.90;56.40
48806;DHT22;34625;47.176;27.548;2023-04-03T05:34:37;23.00;54.10
48806;DHT22;34625;47.176;27.548;2023-04-03T05:37:03;22.80;58.60
48806;DHT22;34625;47.176;27.548;2023-04-03T05:39:31;22.70;59.90
48806;DHT22;34625;47.176;27.548;2023-04-03T05:41:59;22.70;56.00
48806;DHT22;34625;47.176;27.548;2023-04-03T05:44:25;22.60;55.30
48806;DHT22;34625;47.176;27.548;2023-04-03T05:46:52;22.50;53.90
48806;DHT22;34625;47.176;27.548;2023-04-03T05:49:19;22.60;58.00
48806;DHT22;34625;47.176;27.548;2023-04-03T05:51:45;22.80;56.40
48806;DHT22;34625;47.176;27.548;2023-04-03T05:54:31;22.80;61.30
48806;DHT22;34625;47.176;27.548;2023-04-03T05:57:17;23.00;60.50
48806;DHT22;34625;47.176;27.548;2023-04-03T05:59:44;23.20;56.80
48806;DHT22;34625;47.176;27.548;2023-04-03T06:02:11;23.40;55.30
48806;DHT22;34625;47.176;27.548;2023-04-03T06:04:38;23.20;57.00
48806;DHT22;34625;47.176;27.548;2023-04-03T06:07:04;22.90;56.30
48806;DHT22;34625;47.176;27.548;2023-04-03T06:09:30;23.40;63.70
48806;DHT22;34625;47.176;27.548;2023-04-03T06:11:56;23.60;64.70
48806;DHT22;34625;47.176;27.548;2023-04-03T06:14:24;23.70;73.40
48806;DHT22;34625;47.176;27.548;2023-04-03T06:16:51;23.70;66.70
48806;DHT22;34625;47.176;27.548;2023-04-03T06:19:19;23.80;68.80
48806;DHT22;34625;47.176;27.548;2023-04-03T06:21:49;23.80;59.40
48806;DHT22;34625;47.176;27.548;2023-04-03T06:24:16;23.90;45.80
48806;DHT22;34625;47.176;27.548;2023-04-03T06:26:42;23.70;41.60
48806;DHT22;34625;47.176;27.548;2023-04-03T06:29:08;23.70;40.30
48806;DHT22;34625;47.176;27.548;2023-04-03T06:31:34;23.70;40.50
48806;DHT22;34625;47.176;27.548;2023-04-03T06:34:02;23.60;40.20
48806;DHT22;34625;47.176;27.548;2023-04-03T06:36:28;23.70;39.80
48806;DHT22;34625;47.176;27.548;2023-04-03T06:38:54;23.60;39.40
48806;DHT22;34625;47.176;27.548;2023-04-03T06:41:20;23.70;39.50
48806;DHT22;34625;47.176;27.548;2023-04-03T06:43:46;23.50;39.10
48806;DHT22;34625;47.176;27.548;2023-04-03T06:46:16;23.50;38.70
48806;DHT22;34625;47.176;27.548;2023-04-03T06:48:42;23.70;38.90
48806;DHT22;34625;47.176;27.548;2023-04-03T06:51:27;23.50;38.80
48806;DHT22;34625;47.176;27.548;2023-04-03T06:53:56;23.50;38.90
48806;DHT22;34625;47.176;27.548;2023-04-03T06:56:22;23.60;38.30
48806;DHT22;34625;47.176;27.548;2023-04-03T06:58:48;23.40;38.70
48806;DHT22;34625;47.176;27.548;2023-04-03T07:01:15;23.40;39.50
48806;DHT22;34625;47.176;27.548;2023-04-03T07:03:41;23.50;41.00
48806;DHT22;34625;47.176;27.548;2023-04-03T07:06:09;23.50;39.90
48806;DHT22;34625;47.176;27.548;2023-04-03T07:08:36;23.50;41.10
48806;DHT22;34625;47.176;27.548;2023-04-03T07:11:03;23.50;40.70
48806;DHT22;34625;47.176;27.548;2023-04-03T07:13:29;23.50;40.50
48806;DHT22;34625;47.176;27.548;2023-04-03T07:15:55;23.40;39.00
48806;DHT22;34625;47.176;27.548;2023-04-03T07:18:22;23.30;38.90
48806;DHT22;34625;47.176;27.548;2023-04-03T07:20:48;23.40;38.70
48806;DHT22;34625;47.176;27.548;2023-04-03T07:23:14;23.20;40.80
48806;DHT22;34625;47.176;27.548;2023-04-03T07:25:44;23.40;53.70
48806;DHT22;34625;47.176;27.548;2023-04-03T07:28:10;23.50;56.00
48806;DHT22;34625;47.176;27.548;2023-04-03T07:30:47;23.70;55.10
48806;DHT22;34625;47.176;27.548;2023-04-03T07:33:14;23.70;55.30
48806;DHT22;34625;47.176;27.548;2023-04-03T07:35:40;23.70;55.10
48806;DHT22;34625;47.176;27.548;2023-04-03T07:38:06;23.70;55.50
48806;DHT22;34625;47.176;27.548;2023-04-03T07:40:32;23.70;56.60
48806;DHT22;34625;47.176;27.548;2023-04-03T07:42:58;23.60;54.80
48806;DHT22;34625;47.176;27.548;2023-04-03T07:45:25;23.70;56.50
48806;DHT22;34625;47.176;27.548;2023-04-03T07:47:51;23.70;56.30
48806;DHT22;34625;47.176;27.548;2023-04-03T07:50:17;23.70;56.00
48806;DHT22;34625;47.176;27.548;2023-04-03T07:52:43;23.80;54.40
48806;DHT22;34625;47.176;27.548;2023-04-03T07:55:09;23.80;53.60
48806;DHT22;34625;47.176;27.548;2023-04-03T07:57:35;23.70;54.90
48806;DHT22;34625;47.176;27.548;2023-04-03T08:00:02;23.80;53.60
48806;DHT22;34625;47.176;27.548;2023-04-03T08:02:37;23.80;54.80
48806;DHT22;34625;47.176;27.548;2023-04-03T08:05:03;23.70;54.90
48806;DHT22;34625;47.176;27.548;2023-04-03T08:07:29;23.80;54.40
48806;DHT22;34625;47.176;27.548;2023-04-03T08:09:55;23.70;52.70
48806;DHT22;34625;47.176;27.548;2023-04-03T08:12:21;23.90;55.80
48806;DHT22;34625;47.176;27.548;2023-04-03T08:14:47;23.70;54.30
48806;DHT22;34625;47.176;27.548;2023-04-03T08:17:13;23.70;55.50
48806;DHT22;34625;47.176;27.548;2023-04-03T08:19:39;23.70;55.40
48806;DHT22;34625;47.176;27.548;2023-04-03T08:22:05;23.70;54.70
48806;DHT22;34625;47.176;27.548;2023-04-03T08:24:32;23.70;55.00
48806;DHT22;34625;47.176;27.548;2023-04-03T08:26:58;23.90;54.30
48806;DHT22;34625;47.176;27.548;2023-04-03T08:29:24;23.90;54.80
48806;DHT22;34625;47.176;27.548;2023-04-03T08:31:50;23.70;53.60
48806;DHT22;34625;47.176;27.548;2023-04-03T08:34:16;23.70;54.50
48806;DHT22;34625;47.176;27.548;2023-04-03T08:36:42;23.70;53.10
48806;DHT22;34625;47.176;27.548;2023-04-03T08:39:08;23.70;54.30
48806;DHT22;34625;47.176;27.548;2023-04-03T08:41:44;23.70;54.80
48806;DHT22;34625;47.176;27.548;2023-04-03T08:49:37;23.70;54.80
48806;DHT22;34625;47.176;27.548;2023-04-03T08:52:10;23.80;54.40
48806;DHT22;34625;47.176;27.548;2023-04-03T08:54:48;23.70;55.10
48806;DHT22;34625;47.176;27.548;2023-04-03T08:57:15;23.70;56.80
48806;DHT22;34625;47.176;27.548;2023-04-03T08:59:41;23.70;55.40
48806;DHT22;34625;47.176;27.548;2023-04-03T09:02:19;23.90;56.70
48806;DHT22;34625;47.176;27.548;2023-04-03T09:04:46;23.80;55.50
48806;DHT22;34625;47.176;27.548;2023-04-03T09:07:23;23.90;55.00
48806;DHT22;34625;47.176;27.548;2023-04-03T09:09:51;23.80;55.70
48806;DHT22;34625;47.176;27.548;2023-04-03T09:22:49;24.00;58.10
48806;DHT22;34625;47.176;27.548;2023-04-03T09:25:20;23.90;59.50
48806;DHT22;34625;47.176;27.548;2023-04-03T09:27:47;23.90;57.50
48806;DHT22;34625;47.176;27.548;2023-04-03T09:30:17;23.80;57.50
48806;DHT22;34625;47.176;27.548;2023-04-03T09:32:44;23.80;58.10
48806;DHT22;34625;47.176;27.548;2023-04-03T09:35:16;23.90;60.70
48806;DHT22;34625;47.176;27.548;2023-04-03T09:37:44;24.20;62.70
48806;DHT22;34625;47.176;27.548;2023-04-03T09:42:52;24.70;72.30
48806;DHT22;34625;47.176;27.548;2023-04-03T09:45:26;25.30;72.80
48806;DHT22;34625;47.176;27.548;2023-04-03T09:48:06;25.30;68.10
48806;DHT22;34625;47.176;27.548;2023-04-03T09:50:33;25.10;63.10
48806;DHT22;34625;47.176;27.548;2023-04-03T09:53:01;25.20;58.90
48806;DHT22;34625;47.176;27.548;2023-04-03T09:55:30;24.80;59.00
48806;DHT22;34625;47.176;27.548;2023-04-03T09:58:03;24.80;59.60
48806;DHT22;34625;47.176;27.548;2023-04-03T10:02:55;24.70;58.40
48806;DHT22;34625;47.176;27.548;2023-04-03T10:05:35;24.50;59.40
48806;DHT22;34625;47.176;27.548;2023-04-03T10:10:33;24.50;57.90
48806;DHT22;34625;47.176;27.548;2023-04-03T10:13:15;24.30;58.90
48806;DHT22;34625;47.176;27.548;2023-04-03T10:15:45;24.20;58.10
48806;DHT22;34625;47.176;27.548;2023-04-03T10:20:44;24.00;59.20
48806;DHT22;34625;47.176;27.548;2023-04-03T10:23:21;24.10;59.70
48806;DHT22;34625;47.176;27.548;2023-04-03T10:26:08;24.00;58.60
48806;DHT22;34625;47.176;27.548;2023-04-03T10:28:42;24.10;57.10
48806;DHT22;34625;47.176;27.548;2023-04-03T10:51:39;23.80;59.40
48806;DHT22;34625;47.176;27.548;2023-04-03T10:54:24;23.70;56.40
48806;DHT22;34625;47.176;27.548;2023-04-03T10:56:50;23.60;58.20
48806;DHT22;34625;47.176;27.548;2023-04-03T10:59:26;23.70;58.60
48806;DHT22;34625;47.176;27.548;2023-04-03T11:01:59;23.60;57.60
48806;DHT22;34625;47.176;27.548;2023-04-03T11:04:27;23.70;57.20
48806;DHT22;34625;47.176;27.548;2023-04-03T11:07:00;23.80;59.10
48806;DHT22;34625;47.176;27.548;2023-04-03T11:09:28;23.70;57.80
48806;DHT22;34625;47.176;27.548;2023-04-03T11:12:02;23.70;59.20
48806;DHT22;34625;47.176;27.548;2023-04-03T11:14:30;23.60;58.90
48806;DHT22;34625;47.176;27.548;2023-04-03T11:22:41;23.60;56.80
48806;DHT22;34625;47.176;27.548;2023-04-03T11:27:43;23.50;57.10
48806;DHT22;34625;47.176;27.548;2023-04-03T11:33:05;23.50;59.10
48806;DHT22;34625;47.176;27.548;2023-04-03T11:35:36;23.40;55.80
48806;DHT22;34625;47.176;27.548;2023-04-03T11:38:02;23.40;56.20
48806;DHT22;34625;47.176;27.548;2023-04-03T11:40:31;23.40;55.30
48806;DHT22;34625;47.176;27.548;2023-04-03T11:47:53;23.50;48.90
48806;DHT22;34625;47.176;27.548;2023-04-03T12:05:57;23.50;45.90
48806;DHT22;34625;47.176;27.548;2023-04-03T12:08:52;23.60;45.20
48806;DHT22;34625;47.176;27.548;2023-04-03T12:11:29;23.50;44.70
48806;DHT22;34625;47.176;27.548;2023-04-03T12:24:13;23.40;42.00
48806;DHT22;34625;47.176;27.548;2023-04-03T12:29:27;23.40;53.40
48806;DHT22;34625;47.176;27.548;2023-04-03T12:39:51;23.20;54.90
48806;DHT22;34625;47.176;27.548;2023-04-03T12:48:01;23.10;56.90
48806;DHT22;34625;47.176;27.548;2023-04-03T12:50:28;23.10;55.20
48806;DHT22;34625;47.176;27.548;2023-04-03T12:55:21;23.10;58.00
48806;DHT22;34625;47.176;27.548;2023-04-03T12:57:47;23.00;54.80
48806;DHT22;34625;47.176;27.548;2023-04-03T13:00:20;23.10;56.90
48806;DHT22;34625;47.176;27.548;2023-04-03T13:02:47;23.00;57.30
48806;DHT22;34625;47.176;27.548;2023-04-03T13:05:15;23.10;57.20
48806;DHT22;34625;47.176;27.548;2023-04-03T13:07:41;23.10;57.90
48806;DHT22;34625;47.176;27.548;2023-04-03T13:12:35;23.00;58.20
48806;DHT22;34625;47.176;27.548;2023-04-03T13:15:11;23.10;57.80
48806;DHT22;34625;47.176;27.548;2023-04-03T13:17:40;23.10;55.60
48806;DHT22;34625;47.176;27.548;2023-04-03T13:20:10;23.10;57.80
48806;DHT22;34625;47.176;27.548;2023-04-03T13:22:38;23.00;56.20
48806;DHT22;34625;47.176;27.548;2023-04-03T13:25:09;23.00;54.80
48806;DHT22;34625;47.176;27.548;2023-04-03T13:27:36;22.90;55.90
48806;DHT22;34625;47.176;27.548;2023-04-03T13:30:05;22.90;54.10
48806;DHT22;34625;47.176;27.548;2023-04-03T13:32:31;22.90;55.90
48806;DHT22;34625;47.176;27.548;2023-04-03T13:34:57;23.00;56.00
48806;DHT22;34625;47.176;27.548;2023-04-03T13:42:35;23.00;55.00
48806;DHT22;34625;47.176;27.548;2023-04-03T13:45:16;22.80;53.90
48806;DHT22;34625;47.176;27.548;2023-04-03T13:47:44;22.90;57.80
48806;DHT22;34625;47.176;27.548;2023-04-03T13:50:18;22.80;57.20
48806;DHT22;34625;47.176;27.548;2023-04-03T13:52:48;22.80;56.70
48806;DHT22;34625;47.176;27.548;2023-04-03T13:55:25;23.00;55.30
48806;DHT22;34625;47.176;27.548;2023-04-03T13:58:02;22.90;57.10
48806;DHT22;34625;47.176;27.548;2023-04-03T14:00:29;22.90;57.60
48806;DHT22;34625;47.176;27.548;2023-04-03T14:02:56;23.00;56.60
48806;DHT22;34625;47.176;27.548;2023-04-03T14:05:22;23.00;56.20
48806;DHT22;34625;47.176;27.548;2023-04-03T14:07:50;22.80;56.40
48806;DHT22;34625;47.176;27.548;2023-04-03T14:10:17;22.90;55.50
48806;DHT22;34625;47.176;27.548;2023-04-03T14:12:42;22.90;55.70
48806;DHT22;34625;47.176;27.548;2023-04-03T14:15:27;22.90;55.80
48806;DHT22;34625;47.176;27.548;2023-04-03T14:17:54;23.00;57.20
48806;DHT22;34625;47.176;27.548;2023-04-03T14:20:22;22.90;55.20
48806;DHT22;34625;47.176;27.548;2023-04-03T14:22:48;22.90;55.80
48806;DHT22;34625;47.176;27.548;2023-04-03T14:25:14;22.90;57.90
48806;DHT22;34625;47.176;27.548;2023-04-03T14:27:48;22.80;57.20
48806;DHT22;34625;47.176;27.548;2023-04-03T14:30:35;22.90;58.20
48806;DHT22;34625;47.176;27.548;2023-04-03T14:33:02;22.80;54.30
48806;DHT22;34625;47.176;27.548;2023-04-03T14:35:28;22.80;56.70
48806;DHT22;34625;47.176;27.548;2023-04-03T14:37:54;22.50;56.40
48806;DHT22;34625;47.176;27.548;2023-04-03T14:40:22;22.50;56.90
48806;DHT22;34625;47.176;27.548;2023-04-03T14:42:48;22.40;54.70
48806;DHT22;34625;47.176;27.548;2023-04-03T14:45:15;22.30;57.50
48806;DHT22;34625;47.176;27.548;2023-04-03T14:47:46;22.30;56.10
48806;DHT22;34625;47.176;27.548;2023-04-03T14:50:17;22.30;55.00
48806;DHT22;34625;47.176;27.548;2023-04-03T14:52:43;22.20;55.60
48806;DHT22;34625;47.176;27.548;2023-04-03T14:55:11;22.20;60.60
48806;DHT22;34625;47.176;27.548;2023-04-03T14:57:37;22.20;59.10
48806;DHT22;34625;47.176;27.548;2023-04-03T15:00:04;22.20;61.80
48806;DHT22;34625;47.176;27.548;2023-04-03T15:02:34;22.30;54.90
48806;DHT22;34625;47.176;27.548;2023-04-03T15:05:01;22.70;54.60
48806;DHT22;34625;47.176;27.548;2023-04-03T15:07:31;22.90;52.20
48806;DHT22;34625;47.176;27.548;2023-04-03T15:09:59;23.10;53.90
48806;DHT22;34625;47.176;27.548;2023-04-03T15:12:27;23.20;51.50
48806;DHT22;34625;47.176;27.548;2023-04-03T15:14:52;23.20;49.90
48806;DHT22;34625;47.176;27.548;2023-04-03T15:17:19;23.40;47.80
48806;DHT22;34625;47.176;27.548;2023-04-03T15:19:47;23.40;47.20
48806;DHT22;34625;47.176;27.548;2023-04-03T15:22:13;23.40;48.70
48806;DHT22;34625;47.176;27.548;2023-04-03T15:24:40;23.40;46.90
48806;DHT22;34625;47.176;27.548;2023-04-03T15:27:06;23.40;44.60
48806;DHT22;34625;47.176;27.548;2023-04-03T15:29:32;23.40;42.90
48806;DHT22;34625;47.176;27.548;2023-04-03T15:31:58;23.40;42.90
48806;DHT22;34625;47.176;27.548;2023-04-03T15:34:23;23.50;53.90
48806;DHT22;34625;47.176;27.548;2023-04-03T15:36:49;23.50;54.20
48806;DHT22;34625;47.176;27.548;2023-04-03T15:39:17;23.50;52.70
48806;DHT22;34625;47.176;27.548;2023-04-03T15:41:44;23.60;52.00
48806;DHT22;34625;47.176;27.548;2023-04-03T15:44:10;23.50;51.40
48806;DHT22;34625;47.176;27.548;2023-04-03T15:46:37;23.50;51.60
48806;DHT22;34625;47.176;27.548;2023-04-03T15:49:04;23.60;50.00
48806;DHT22;34625;47.176;27.548;2023-04-03T15:51:30;23.50;51.00
48806;DHT22;34625;47.176;27.548;2023-04-03T15:53:56;23.80;50.90
48806;DHT22;34625;47.176;27.548;2023-04-03T15:56:22;23.50;50.50
48806;DHT22;34625;47.176;27.548;2023-04-03T15:58:47;23.40;50.00
48806;DHT22;34625;47.176;27.548;2023-04-03T16:01:13;23.40;49.40
48806;DHT22;34625;47.176;27.548;2023-04-03T16:03:40;23.40;43.40
48806;DHT22;34625;47.176;27.548;2023-04-03T16:06:11;23.10;43.50
48806;DHT22;34625;47.176;27.548;2023-04-03T16:08:37;23.00;48.90
48806;DHT22;34625;47.176;27.548;2023-04-03T16:11:03;23.00;49.20
48806;DHT22;34625;47.176;27.548;2023-04-03T16:13:29;23.10;47.80
48806;DHT22;34625;47.176;27.548;2023-04-03T16:15:56;23.00;50.70
48806;DHT22;34625;47.176;27.548;2023-04-03T16:18:22;22.90;50.60
48806;DHT22;34625;47.176;27.548;2023-04-03T16:20:47;22.80;51.80
48806;DHT22;34625;47.176;27.548;2023-04-03T16:23:14;22.90;52.40
48806;DHT22;34625;47.176;27.548;2023-04-03T16:25:40;22.90;51.90
48806;DHT22;34625;47.176;27.548;2023-04-03T16:28:12;22.70;53.70
48806;DHT22;34625;47.176;27.548;2023-04-03T16:30:39;22.80;52.50
48806;DHT22;34625;47.176;27.548;2023-04-03T16:33:05;22.80;53.00
48806;DHT22;34625;47.176;27.548;2023-04-03T16:35:31;22.70;53.00
48806;DHT22;34625;47.176;27.548;2023-04-03T16:37:57;22.60;55.00
48806;DHT22;34625;47.176;27.548;2023-04-03T16:40:23;22.70;54.60
48806;DHT22;34625;47.176;27.548;2023-04-03T16:42:49;22.70;53.90
48806;DHT22;34625;47.176;27.548;2023-04-03T16:45:15;22.70;52.60
48806;DHT22;34625;47.176;27.548;2023-04-03T16:47:41;22.70;54.70
48806;DHT22;34625;47.176;27.548;2023-04-03T16:50:07;22.60;52.40
48806;DHT22;34625;47.176;27.548;2023-04-03T16:52:32;22.70;54.60
48806;DHT22;34625;47.176;27.548;2023-04-03T16:54:58;22.70;55.30
48806;DHT22;34625;47.176;27.548;2023-04-03T16:57:24;22.70;54.60
48806;DHT22;34625;47.176;27.548;2023-04-03T16:59:50;22.70;54.60
48806;DHT22;34625;47.176;27.548;2023-04-03T17:02:16;22.60;55.10
48806;DHT22;34625;47.176;27.548;2023-04-03T17:04:42;22.70;55.90
48806;DHT22;34625;47.176;27.548;2023-04-03T17:07:08;22.70;56.50
48806;DHT22;34625;47.176;27.548;2023-04-03T17:09:34;22.50;55.60
48806;DHT22;34625;47.176;27.548;2023-04-03T17:12:00;22.50;54.40
48806;DHT22;34625;47.176;27.548;2023-04-03T17:14:26;22.60;56.10
48806;DHT22;34625;47.176;27.548;2023-04-03T17:16:52;22.50;57.30
48806;DHT22;34625;47.176;27.548;2023-04-03T17:19:18;22.50;54.70
48806;DHT22;34625;47.176;27.548;2023-04-03T17:21:44;22.60;56.50
48806;DHT22;34625;47.176;27.548;2023-04-03T17:24:11;22.60;56.40